Time;durP1;ratioP1;P1;durP2;ratioP2;P2;SDS_P1;SDS_P2;PMS_P1;PMS_P2;Temp;Humidity;BMP_temperature;BMP_pressure;BME280_temperature;BME280_humidity;BME280_pressure;Samples;Min_cycle;Max_cycle;Signal;HPM_P1;HPM_P2
2022/05/29 00:02:16;;;;;;;0.50;0.50;;;9.10;99.90;;;;;;5047125;28;20045;-79
2022/05/29 00:04:41;;;;;;;0.60;0.60;;;9.00;99.90;;;;;;5024479;28;20094;-77
2022/05/29 00:07:13;;;;;;;0.50;0.50;;;9.00;99.90;;;;;;5032041;28;20122;-77
2022/05/29 00:09:41;;;;;;;0.70;0.70;;;9.10;99.90;;;;;;5014801;28;20421;-79
2022/05/29 00:12:10;;;;;;;0.40;0.40;;;9.10;99.90;;;;;;5018178;28;20045;-79
2022/05/29 00:14:38;;;;;;;0.40;0.40;;;9.20;99.90;;;;;;5034288;28;20063;-80
2022/05/29 00:17:04;;;;;;;0.80;0.80;;;9.30;99.90;;;;;;5034183;28;20402;-80
2022/05/29 00:19:31;;;;;;;0.57;0.57;;;9.20;99.90;;;;;;5002267;28;20129;-81
2022/05/29 00:21:57;;;;;;;1.90;1.80;;;9.30;99.90;;;;;;5029954;28;20506;-77
2022/05/29 00:24:23;;;;;;;;;;;9.30;99.90;;;;;;5026588;28;20170;-78
2022/05/29 00:26:49;;;;;;;1.48;0.60;;;9.40;99.90;;;;;;5033909;28;20003;-80
2022/05/29 00:29:15;;;;;;;0.40;0.40;;;9.40;99.90;;;;;;5034358;28;20056;-79
2022/05/29 00:31:41;;;;;;;0.60;0.60;;;9.40;99.90;;;;;;5020596;28;20052;-80
2022/05/29 00:34:07;;;;;;;0.63;0.63;;;9.30;99.90;;;;;;5052754;28;20037;-80
2022/05/29 00:36:40;;;;;;;1.25;0.63;;;9.30;99.90;;;;;;5043848;28;20072;-80
2022/05/29 00:39:07;;;;;;;0.95;0.95;;;9.30;99.90;;;;;;5011507;28;20052;-81
2022/05/29 00:41:35;;;;;;;0.63;0.63;;;9.20;99.90;;;;;;5010599;28;20137;-78
2022/05/29 00:44:10;;;;;;;0.60;0.60;;;9.20;99.90;;;;;;4994917;28;20041;-80
2022/05/29 00:46:36;;;;;;;0.50;0.50;;;9.20;99.90;;;;;;5020589;28;20498;-79
2022/05/29 00:49:06;;;;;;;;;;;9.20;99.90;;;;;;4997645;28;20071;-79
2022/05/29 00:51:38;;;;;;;0.30;0.30;;;9.10;99.90;;;;;;4988078;28;20263;-80
2022/05/29 00:54:05;;;;;;;0.80;0.80;;;9.20;99.90;;;;;;5025114;28;20046;-77
2022/05/29 00:56:33;;;;;;;0.60;0.60;;;9.20;99.90;;;;;;4994315;28;20111;-80
2022/05/29 00:59:01;;;;;;;0.50;0.50;;;9.20;99.90;;;;;;4995232;28;20037;-80
2022/05/29 01:01:28;;;;;;;0.43;0.43;;;9.20;99.90;;;;;;5003556;28;20441;-78
2022/05/29 01:03:55;;;;;;;0.30;0.30;;;9.20;99.90;;;;;;5027305;28;20120;-79
2022/05/29 01:06:21;;;;;;;0.50;0.50;;;9.30;99.90;;;;;;5000843;28;20081;-78
2022/05/29 01:08:47;;;;;;;0.73;0.73;;;9.30;99.90;;;;;;5010816;28;20453;-79
2022/05/29 01:11:32;;;;;;;1.38;0.73;;;9.30;99.90;;;;;;5027085;28;20120;-78
2022/05/29 01:14:22;;;;;;;0.60;0.60;;;9.30;99.90;;;;;;5013718;28;20472;-78
2022/05/29 01:17:24;;;;;;;1.05;0.75;;;9.40;99.90;;;;;;5030004;28;20046;-78
2022/05/29 01:20:25;;;;;;;0.60;0.60;;;9.40;99.90;;;;;;4993503;28;20054;-79
2022/05/29 01:22:57;;;;;;;0.60;0.60;;;9.40;99.90;;;;;;5007729;28;20053;-79
2022/05/29 01:25:54;;;;;;;2.20;1.67;;;9.50;99.90;;;;;;5007749;28;20506;-77
2022/05/29 01:28:33;;;;;;;0.73;0.73;;;9.50;99.90;;;;;;5012756;28;20049;-78
2022/05/29 01:31:05;;;;;;;0.60;0.60;;;9.60;99.90;;;;;;5010379;28;20038;-79
2022/05/29 01:33:48;;;;;;;0.55;0.55;;;9.50;99.90;;;;;;5020607;28;20041;-78
2022/05/29 01:37:12;;;;;;;0.60;0.60;;;9.50;99.90;;;;;;5013316;28;20042;-78
2022/05/29 01:40:06;;;;;;;0.50;0.50;;;9.50;99.90;;;;;;4938425;28;20507;-79
2022/05/29 01:42:35;;;;;;;1.33;1.23;;;9.50;99.90;;;;;;4985991;28;20468;-79
2022/05/29 01:45:25;;;;;;;0.50;0.50;;;9.50;99.90;;;;;;5020802;28;20048;-80
2022/05/29 01:48:15;;;;;;;0.60;0.60;;;9.50;99.90;;;;;;5010093;28;20046;-79
2022/05/29 01:50:47;;;;;;;0.50;0.50;;;9.50;99.90;;;;;;4996937;28;20137;-79
2022/05/29 01:53:18;;;;;;;0.70;0.70;;;9.50;99.90;;;;;;5030472;28;20116;-78
2022/05/29 01:55:49;;;;;;;0.57;0.57;;;9.50;99.90;;;;;;5029845;28;20390;-82
2022/05/29 01:58:22;;;;;;;0.52;0.52;;;9.60;99.90;;;;;;5020666;28;20049;-79
2022/05/29 02:00:49;;;;;;;0.52;0.52;;;9.60;99.90;;;;;;5014700;28;20047;-80
2022/05/29 02:03:22;;;;;;;0.50;0.50;;;9.60;99.90;;;;;;5019388;28;20434;-79
2022/05/29 02:05:53;;;;;;;0.47;0.47;;;9.70;99.90;;;;;;5018385;28;20148;-78
2022/05/29 02:08:27;;;;;;;0.50;0.50;;;9.70;99.90;;;;;;5021716;28;20427;-78
2022/05/29 02:11:03;;;;;;;0.40;0.40;;;9.70;99.90;;;;;;5008837;28;20046;-80
2022/05/29 02:13:50;;;;;;;0.32;0.32;;;9.70;99.90;;;;;;5022290;28;20406;-77
2022/05/29 02:16:35;;;;;;;0.57;0.57;;;9.70;99.90;;;;;;5009287;28;20041;-77
2022/05/29 02:19:21;;;;;;;0.50;0.50;;;9.70;99.90;;;;;;5025242;28;20108;-77
2022/05/29 02:22:02;;;;;;;0.50;0.50;;;9.80;99.90;;;;;;4997409;28;20038;-78
2022/05/29 02:24:37;;;;;;;0.77;0.77;;;9.70;99.90;;;;;;5013723;28;20476;-80
2022/05/29 02:27:32;;;;;;;0.60;0.60;;;9.80;99.90;;;;;;5009436;28;20041;-79
2022/05/29 02:29:59;;;;;;;0.80;0.80;;;9.80;99.90;;;;;;5032701;28;20054;-79
2022/05/29 02:32:46;;;;;;;0.45;0.45;;;9.90;99.90;;;;;;5032852;28;20049;-79
2022/05/29 02:35:27;;;;;;;0.73;0.73;;;9.80;99.90;;;;;;5033211;28;20096;-79
2022/05/29 02:38:00;;;;;;;0.70;0.70;;;9.90;99.90;;;;;;5033547;28;20437;-79
2022/05/29 02:40:49;;;;;;;3.88;1.35;;;9.90;99.90;;;;;;5035882;28;20041;-80
2022/05/29 02:43:36;;;;;;;0.30;0.30;;;10.00;99.90;;;;;;5036864;28;20102;-78
2022/05/29 02:46:28;;;;;;;0.40;0.40;;;10.00;99.90;;;;;;5027669;28;20043;-80
2022/05/29 02:49:04;;;;;;;0.50;0.50;;;9.90;99.90;;;;;;4999251;28;20124;-80
2022/05/29 02:51:40;;;;;;;0.50;0.50;;;9.90;99.90;;;;;;5011996;28;20397;-79
2022/05/29 02:54:10;;;;;;;0.60;0.60;;;9.80;99.90;;;;;;5024354;28;20100;-79
2022/05/29 02:56:36;;;;;;;0.60;0.60;;;9.80;99.90;;;;;;5010803;28;20720;-80
2022/05/29 02:59:03;;;;;;;8.02;3.30;;;9.80;99.90;;;;;;5019548;28;20041;-79
2022/05/29 03:01:31;;;;;;;0.52;0.52;;;9.70;99.90;;;;;;5020733;28;20057;-79
2022/05/29 03:04:02;;;;;;;0.40;0.40;;;9.70;99.90;;;;;;5031317;28;20124;-79
2022/05/29 03:06:56;;;;;;;0.45;0.45;;;9.70;99.90;;;;;;5049351;28;20052;-81
2022/05/29 03:09:33;;;;;;;0.43;0.43;;;9.60;99.90;;;;;;5015899;28;20053;-79
2022/05/29 03:12:00;;;;;;;0.40;0.40;;;9.60;99.90;;;;;;5023661;28;20044;-81
2022/05/29 03:14:40;;;;;;;0.40;0.40;;;9.60;99.90;;;;;;5042931;28;20103;-80
2022/05/29 03:17:19;;;;;;;0.38;0.38;;;9.60;99.90;;;;;;5029329;28;20507;-78
2022/05/29 03:20:08;;;;;;;0.45;0.45;;;9.50;99.90;;;;;;5015294;28;20387;-81
2022/05/29 03:23:17;;;;;;;0.95;0.68;;;9.60;99.90;;;;;;5025891;28;20047;-77
2022/05/29 03:25:57;;;;;;;0.55;0.55;;;9.60;99.90;;;;;;4991402;28;20398;-80
2022/05/29 03:28:56;;;;;;;0.43;0.43;;;9.70;99.90;;;;;;5019031;28;20044;-79
2022/05/29 03:31:25;;;;;;;0.63;0.63;;;9.70;99.90;;;;;;5018729;28;20049;-79
2022/05/29 03:33:51;;;;;;;0.50;0.50;;;9.70;99.90;;;;;;5048069;28;20083;-79
2022/05/29 03:36:17;;;;;;;0.30;0.30;;;9.80;99.90;;;;;;5061956;28;20549;-79
2022/05/29 03:38:45;;;;;;;;;;;9.80;99.90;;;;;;5016714;28;20394;-78
2022/05/29 03:41:28;;;;;;;0.35;0.35;;;9.80;99.90;;;;;;5021568;28;19958;-79
2022/05/29 03:43:54;;;;;;;0.40;0.40;;;9.80;99.90;;;;;;5051057;28;20045;-79
2022/05/29 03:46:20;;;;;;;0.52;0.52;;;9.80;99.90;;;;;;5049269;28;20402;-80
2022/05/29 03:48:45;;;;;;;0.50;0.50;;;9.80;99.90;;;;;;4998299;28;20459;-77
2022/05/29 03:51:11;;;;;;;0.55;0.50;;;9.80;99.90;;;;;;4984070;28;20042;-79
2022/05/29 03:53:37;;;;;;;0.55;0.55;;;9.80;99.90;;;;;;5002338;28;20088;-78
2022/05/29 03:56:04;;;;;;;1.45;1.35;;;9.80;99.90;;;;;;5043609;28;20406;-78
2022/05/29 03:58:30;;;;;;;0.57;0.57;;;9.70;99.90;;;;;;5028597;28;20042;-79
2022/05/29 04:00:57;;;;;;;3.15;2.95;;;9.80;99.90;;;;;;5027279;28;20383;-79
2022/05/29 04:03:22;;;;;;;0.50;0.50;;;9.80;99.90;;;;;;5048014;28;20120;-78
2022/05/29 04:05:48;;;;;;;0.40;0.40;;;9.80;99.90;;;;;;5047914;28;20191;-80
2022/05/29 04:13:45;;;;;;;0.43;0.43;;;9.80;99.90;;;;;;5000401;28;20251;-81
2022/05/29 04:16:11;;;;;;;0.57;0.57;;;9.80;99.90;;;;;;5042272;28;20041;-79
2022/05/29 04:18:37;;;;;;;0.60;0.60;;;9.80;99.90;;;;;;5012518;28;20061;-79
2022/05/29 04:21:05;;;;;;;0.50;0.50;;;9.80;99.90;;;;;;5014371;28;20048;-79
2022/05/29 04:23:31;;;;;;;0.50;0.50;;;9.70;99.90;;;;;;5020012;28;20083;-78
2022/05/29 04:25:56;;;;;;;0.47;0.47;;;9.70;99.90;;;;;;5015262;28;20095;-81
2022/05/29 04:28:25;;;;;;;2.30;1.42;;;9.80;99.90;;;;;;5039557;28;20049;-79
2022/05/29 04:30:51;;;;;;;0.50;0.50;;;9.80;99.90;;;;;;5034046;28;20045;-79
2022/05/29 04:33:17;;;;;;;0.50;0.50;;;9.80;99.90;;;;;;5021474;28;20045;-79
2022/05/29 04:35:48;;;;;;;0.88;0.88;;;9.90;99.90;;;;;;5068320;28;20084;-81
2022/05/29 04:38:15;;;;;;;0.85;0.85;;;9.70;99.90;;;;;;5009493;28;20464;-78
2022/05/29 04:40:43;;;;;;;0.50;0.50;;;9.70;99.90;;;;;;5036688;28;20053;-79
2022/05/29 04:43:09;;;;;;;0.40;0.40;;;9.70;99.90;;;;;;5014235;28;20061;-79
2022/05/29 04:45:38;;;;;;;0.40;0.40;;;9.70;99.90;;;;;;5025216;28;20048;-80
2022/05/29 04:48:04;;;;;;;0.60;0.60;;;9.70;99.90;;;;;;5046839;28;20045;-80
2022/05/29 04:50:30;;;;;;;0.50;0.50;;;9.60;99.90;;;;;;4996136;28;20067;-78
2022/05/29 04:52:56;;;;;;;0.50;0.50;;;9.70;99.90;;;;;;5037722;28;20044;-79
2022/05/29 04:55:22;;;;;;;0.52;0.52;;;9.70;99.90;;;;;;5017228;28;20041;-80
2022/05/29 04:57:47;;;;;;;;;;;9.70;99.90;;;;;;5061258;28;20033;-78
2022/05/29 05:00:14;;;;;;;0.40;0.40;;;9.70;99.90;;;;;;5048984;28;19923;-78
2022/05/29 05:02:40;;;;;;;0.35;0.35;;;9.80;99.90;;;;;;5036709;28;20040;-78
2022/05/29 05:05:07;;;;;;;0.47;0.47;;;9.90;99.90;;;;;;5016614;28;20094;-80
2022/05/29 05:07:35;;;;;;;0.43;0.43;;;9.90;99.90;;;;;;5011592;28;20046;-81
2022/05/29 05:10:01;;;;;;;0.43;0.43;;;10.00;99.90;;;;;;5027150;28;20076;-81
2022/05/29 05:12:27;;;;;;;0.73;0.73;;;10.00;99.90;;;;;;4998504;28;20041;-79
2022/05/29 05:14:52;;;;;;;0.40;0.40;;;10.00;99.90;;;;;;5017602;28;20033;-79
2022/05/29 05:17:18;;;;;;;0.40;0.40;;;10.10;99.90;;;;;;5034165;28;20045;-80
2022/05/29 05:19:44;;;;;;;0.60;0.60;;;10.10;99.90;;;;;;5016604;28;20048;-77
2022/05/29 05:22:10;;;;;;;0.50;0.50;;;10.10;99.90;;;;;;5014369;28;20450;-79
2022/05/29 05:24:37;;;;;;;0.60;0.60;;;10.10;99.90;;;;;;5025275;28;20045;-80
2022/05/29 05:27:05;;;;;;;0.43;0.43;;;10.10;99.90;;;;;;5025946;28;20068;-80
2022/05/29 05:29:31;;;;;;;0.40;0.40;;;10.10;99.90;;;;;;5010831;28;20037;-79
2022/05/29 05:31:56;;;;;;;0.50;0.50;;;10.10;99.90;;;;;;4982808;28;20063;-78
2022/05/29 05:34:22;;;;;;;0.30;0.30;;;10.00;99.90;;;;;;5047735;28;20045;-80
2022/05/29 05:36:48;;;;;;;2.30;2.15;;;10.00;99.90;;;;;;5050090;28;20037;-80
2022/05/29 05:39:14;;;;;;;0.88;0.88;;;10.00;99.90;;;;;;5032424;28;20508;-78
2022/05/29 05:41:39;;;;;;;;;;;10.00;99.90;;;;;;5001300;28;20050;-79
2022/05/29 05:44:06;;;;;;;0.40;0.40;;;10.00;99.90;;;;;;5013770;28;19975;-81
2022/05/29 05:46:32;;;;;;;0.50;0.50;;;10.00;99.90;;;;;;5026248;28;20402;-79
2022/05/29 05:48:58;;;;;;;0.60;0.60;;;10.10;99.90;;;;;;5053585;28;20045;-81
2022/05/29 05:51:24;;;;;;;;;;;10.20;99.90;;;;;;5001773;28;20120;-80
2022/05/29 05:53:50;;;;;;;0.40;0.40;;;10.20;99.90;;;;;;5017182;28;20005;-79
2022/05/29 05:56:17;;;;;;;0.50;0.50;;;10.30;99.90;;;;;;5024114;28;20044;-79
2022/05/29 05:58:44;;;;;;;0.50;0.50;;;10.30;99.90;;;;;;5057835;28;20140;-80
2022/05/29 06:01:12;;;;;;;0.30;0.30;;;10.40;99.90;;;;;;5049748;28;20037;-78
2022/05/29 06:03:38;;;;;;;0.30;0.30;;;10.50;99.90;;;;;;5037864;28;20037;-79
2022/05/29 06:06:05;;;;;;;0.52;0.52;;;10.60;99.90;;;;;;5023118;28;20045;-78
2022/05/29 06:08:33;;;;;;;0.40;0.40;;;10.60;99.90;;;;;;5021798;28;20371;-79
2022/05/29 06:10:59;;;;;;;14.05;3.22;;;10.70;99.90;;;;;;5032837;28;20038;-79
2022/05/29 06:13:25;;;;;;;0.40;0.40;;;10.70;99.90;;;;;;5032663;28;20441;-79
2022/05/29 06:15:51;;;;;;;0.40;0.40;;;10.70;99.90;;;;;;5010783;28;20518;-81
2022/05/29 06:18:18;;;;;;;1.00;0.80;;;10.80;99.90;;;;;;5002430;28;20037;-79
2022/05/29 06:20:44;;;;;;;0.40;0.40;;;10.80;99.90;;;;;;5027758;28;20042;-78
2022/05/29 06:23:11;;;;;;;0.47;0.47;;;10.80;99.90;;;;;;5032436;28;20053;-80
2022/05/29 06:25:42;;;;;;;0.60;0.60;;;10.90;99.90;;;;;;5002492;28;20130;-80
2022/05/29 06:28:08;;;;;;;0.40;0.40;;;11.00;99.90;;;;;;5038011;28;20537;-80
2022/05/29 06:30:36;;;;;;;0.60;0.60;;;11.00;99.90;;;;;;5011604;28;20056;-80
2022/05/29 06:33:02;;;;;;;0.45;0.45;;;11.00;99.90;;;;;;5003737;28;20049;-78
2022/05/29 06:35:28;;;;;;;0.63;0.63;;;11.00;99.90;;;;;;5036397;28;20041;-79
2022/05/29 06:37:55;;;;;;;0.40;0.40;;;11.00;99.90;;;;;;5023230;28;20382;-79
2022/05/29 06:40:20;;;;;;;;;;;10.90;99.90;;;;;;5025535;28;20446;-80
2022/05/29 06:42:46;;;;;;;0.50;0.50;;;10.90;99.90;;;;;;5029408;28;19921;-81
2022/05/29 06:45:12;;;;;;;0.80;0.80;;;10.80;99.90;;;;;;5002490;28;20045;-80
2022/05/29 06:47:39;;;;;;;0.45;0.45;;;10.80;99.90;;;;;;5014788;28;20046;-80
2022/05/29 06:50:06;;;;;;;0.47;0.47;;;10.80;99.90;;;;;;5002301;28;20438;-81
2022/05/29 06:52:33;;;;;;;0.40;0.40;;;10.80;99.90;;;;;;4984164;28;20604;-80
2022/05/29 06:55:00;;;;;;;0.40;0.40;;;10.80;99.90;;;;;;5026452;28;20114;-81
2022/05/29 06:57:43;;;;;;;0.30;0.30;;;10.80;99.90;;;;;;5053312;28;20041;-80
2022/05/29 07:08:31;;;;;;;0.30;0.30;;;10.60;99.90;;;;;;5034276;28;20471;-77
2022/05/29 07:10:59;;;;;;;;;;;10.50;99.90;;;;;;5016719;28;20574;-78
2022/05/29 07:13:25;;;;;;;0.40;0.40;;;10.40;99.90;;;;;;5031604;28;19917;-79
2022/05/29 07:15:50;;;;;;;0.50;0.50;;;10.40;99.90;;;;;;4994497;28;20050;-79
2022/05/29 07:18:16;;;;;;;0.40;0.40;;;10.40;99.90;;;;;;5017517;28;20077;-80
2022/05/29 07:20:42;;;;;;;0.40;0.40;;;10.40;99.90;;;;;;5052393;28;20033;-77
2022/05/29 07:23:07;;;;;;;0.50;0.50;;;10.40;99.90;;;;;;5003627;28;20054;-79
2022/05/29 07:25:33;;;;;;;0.40;0.40;;;10.30;99.90;;;;;;5032582;28;20471;-78
2022/05/29 07:27:59;;;;;;;0.47;0.47;;;10.30;99.90;;;;;;5018012;28;20388;-81
2022/05/29 07:30:26;;;;;;;0.40;0.40;;;10.40;99.90;;;;;;5035804;28;20465;-78
2022/05/29 07:32:51;;;;;;;0.40;0.40;;;10.50;99.90;;;;;;5024441;28;20105;-78
2022/05/29 07:35:17;;;;;;;0.50;0.50;;;10.60;99.90;;;;;;5045784;28;20089;-78
2022/05/29 07:37:44;;;;;;;0.40;0.40;;;10.70;99.90;;;;;;5049423;28;20041;-81
2022/05/29 07:40:10;;;;;;;0.50;0.50;;;10.90;99.90;;;;;;5048421;28;20052;-78
2022/05/29 07:45:20;;;;;;;0.40;0.40;;;11.20;99.90;;;;;;5032226;28;20053;-78
2022/05/29 07:47:46;;;;;;;0.40;0.40;;;11.20;99.90;;;;;;5015661;28;20494;-80
2022/05/29 07:50:18;;;;;;;0.40;0.40;;;11.20;99.90;;;;;;5018140;28;20457;-77
2022/05/29 07:52:45;;;;;;;0.38;0.38;;;11.20;99.90;;;;;;5066830;28;20048;-79
2022/05/29 07:55:13;;;;;;;0.40;0.40;;;11.20;99.90;;;;;;5038848;28;20049;-82
2022/05/29 07:57:39;;;;;;;1.08;0.73;;;11.20;99.90;;;;;;5046321;28;20105;-78
2022/05/29 08:00:07;;;;;;;1.15;0.75;;;11.10;99.90;;;;;;5035577;28;20041;-79
2022/05/29 08:02:34;;;;;;;0.52;0.52;;;10.90;99.90;;;;;;5033330;28;20045;-80
2022/05/29 08:05:02;;;;;;;1.85;1.67;;;10.80;99.90;;;;;;5050892;28;20453;-79
2022/05/29 08:07:29;;;;;;;1.42;0.88;;;10.70;99.90;;;;;;5006693;28;20052;-80
2022/05/29 08:09:55;;;;;;;0.40;0.40;;;10.70;99.90;;;;;;5023969;28;20038;-79
2022/05/29 08:12:21;;;;;;;0.50;0.50;;;10.70;99.90;;;;;;5053225;28;20034;-80
2022/05/29 08:14:47;;;;;;;1.15;1.15;;;10.80;99.90;;;;;;5015505;28;20033;-80
2022/05/29 08:17:13;;;;;;;;;;;10.90;99.90;;;;;;5001713;28;20043;-78
2022/05/29 08:19:39;;;;;;;1.13;1.13;;;10.90;99.90;;;;;;5034193;28;20424;-81
2022/05/29 08:22:05;;;;;;;0.57;0.57;;;10.90;99.90;;;;;;5021371;28;20048;-79
2022/05/29 08:30:47;;;;;;;0.40;0.40;;;10.70;99.90;;;;;;5019751;28;20449;-76
2022/05/29 08:33:23;;;;;;;0.50;0.50;;;10.70;99.90;;;;;;5010985;28;20037;-79
2022/05/29 08:36:03;;;;;;;1.05;1.00;;;10.70;99.90;;;;;;5014684;28;20038;-77
2022/05/29 08:38:33;;;;;;;0.43;0.43;;;10.80;99.90;;;;;;5035077;28;20037;-79
2022/05/29 08:41:04;;;;;;;0.32;0.32;;;10.90;99.90;;;;;;5064678;28;20060;-79
2022/05/29 08:43:39;;;;;;;0.88;0.88;;;11.00;99.90;;;;;;5015246;28;20120;-78
2022/05/29 08:46:22;;;;;;;0.40;0.40;;;11.10;99.90;;;;;;5006137;28;20052;-79
2022/05/29 08:48:51;;;;;;;0.30;0.30;;;11.20;99.90;;;;;;5017299;28;20033;-78
2022/05/29 08:51:53;;;;;;;0.40;0.40;;;11.20;99.90;;;;;;5021701;28;20045;-77
2022/05/29 08:54:47;;;;;;;0.60;0.60;;;11.10;99.90;;;;;;5031945;28;20490;-79
2022/05/29 08:57:40;;;;;;;0.45;0.45;;;11.20;99.90;;;;;;5028853;28;20045;-78
2022/05/29 09:00:34;;;;;;;0.30;0.30;;;11.20;99.90;;;;;;5022262;28;20498;-76
2022/05/29 09:03:37;;;;;;;0.57;0.57;;;11.20;99.90;;;;;;5034072;28;20040;-77
2022/05/29 09:06:28;;;;;;;0.73;0.73;;;11.20;99.90;;;;;;5056136;28;20041;-75
2022/05/29 09:09:19;;;;;;;0.40;0.40;;;11.30;99.90;;;;;;5016837;28;20053;-78
2022/05/29 09:11:57;;;;;;;0.38;0.38;;;11.40;99.90;;;;;;5017992;28;20429;-79
2022/05/29 09:14:44;;;;;;;0.43;0.43;;;11.30;99.90;;;;;;5018754;28;20045;-82
2022/05/29 09:17:35;;;;;;;0.60;0.60;;;11.20;99.90;;;;;;5023894;28;20081;-78
2022/05/29 09:20:11;;;;;;;0.47;0.47;;;11.20;99.90;;;;;;5039243;28;20037;-76
2022/05/29 09:22:44;;;;;;;0.40;0.40;;;11.10;99.90;;;;;;5022256;28;20044;-79
2022/05/29 09:25:28;;;;;;;0.80;0.80;;;11.20;99.90;;;;;;5020648;28;20037;-82
2022/05/29 09:27:54;;;;;;;0.40;0.40;;;11.30;99.90;;;;;;5023314;28;20041;-80
2022/05/29 09:30:24;;;;;;;0.30;0.30;;;11.50;99.90;;;;;;5015690;28;20087;-77
2022/05/29 09:32:57;;;;;;;0.40;0.40;;;11.60;99.90;;;;;;4994598;28;20084;-78
2022/05/29 09:35:39;;;;;;;0.40;0.40;;;11.70;99.90;;;;;;5011642;28;20057;-78
2022/05/29 09:38:20;;;;;;;0.35;0.35;;;11.70;99.90;;;;;;5022442;28;20077;-79
2022/05/29 09:41:13;;;;;;;0.40;0.40;;;11.80;99.90;;;;;;5001325;28;20080;-80
2022/05/29 09:43:39;;;;;;;0.70;0.70;;;11.90;99.90;;;;;;5018504;28;20053;-80
2022/05/29 09:46:22;;;;;;;0.38;0.38;;;12.00;99.90;;;;;;5001319;28;20076;-77
2022/05/29 09:51:49;;;;;;;0.50;0.50;;;12.50;99.90;;;;;;5023473;28;20049;-78
2022/05/29 09:54:29;;;;;;;0.35;0.35;;;12.70;99.90;;;;;;5037032;28;20048;-80
2022/05/29 09:57:10;;;;;;;1.00;1.00;;;12.90;99.90;;;;;;5013782;28;20073;-77
2022/05/29 09:59:42;;;;;;;0.73;0.73;;;12.80;99.90;;;;;;5022148;28;20100;-77
2022/05/29 10:02:21;;;;;;;0.63;0.63;;;12.80;99.90;;;;;;5030134;28;20052;-76
2022/05/29 10:04:52;;;;;;;1.10;0.95;;;12.70;99.90;;;;;;5027387;28;20122;-78
2022/05/29 10:07:30;;;;;;;0.32;0.32;;;12.50;99.90;;;;;;5032534;28;20049;-78
2022/05/29 10:10:11;;;;;;;0.40;0.40;;;12.30;99.90;;;;;;5018441;28;20053;-80
2022/05/29 10:12:48;;;;;;;1.13;0.95;;;12.20;99.90;;;;;;5017202;28;20111;-79
2022/05/29 10:15:26;;;;;;;0.30;0.30;;;12.00;99.90;;;;;;5030582;28;20049;-76
2022/05/29 10:17:58;;;;;;;0.30;0.30;;;11.90;99.90;;;;;;5016484;28;20455;-78
2022/05/29 10:20:35;;;;;;;0.52;0.52;;;11.80;99.90;;;;;;5019923;28;20532;-77
2022/05/29 10:23:09;;;;;;;;;;;11.70;99.90;;;;;;5039208;28;20366;-79
2022/05/29 10:25:52;;;;;;;0.50;0.50;;;11.70;99.90;;;;;;5033915;28;19920;-80
2022/05/29 10:28:21;;;;;;;0.50;0.50;;;11.80;99.90;;;;;;5036395;28;20049;-81
2022/05/29 10:31:21;;;;;;;0.40;0.40;;;12.00;99.90;;;;;;5024745;28;20041;-79
2022/05/29 10:34:39;;;;;;;0.40;0.40;;;12.30;99.90;;;;;;5007434;28;20056;-78
2022/05/29 10:37:29;;;;;;;0.40;0.40;;;12.70;99.90;;;;;;5001497;28;20069;-78
2022/05/29 10:40:27;;;;;;;0.77;0.38;;;12.90;99.90;;;;;;5021559;28;20132;-78
2022/05/29 10:42:59;;;;;;;0.88;0.57;;;12.80;99.90;;;;;;5013067;28;20068;-81
2022/05/29 10:45:28;;;;;;;0.30;0.30;;;12.50;99.90;;;;;;4996902;28;20053;-78
2022/05/29 10:48:03;;;;;;;0.63;0.63;;;12.20;99.90;;;;;;5025443;28;20056;-81
2022/05/29 10:50:55;;;;;;;0.40;0.40;;;12.10;99.90;;;;;;4996490;28;20041;-78
2022/05/29 10:53:35;;;;;;;0.40;0.40;;;12.00;99.90;;;;;;5006187;28;20495;-82
2022/05/29 10:57:01;;;;;;;0.40;0.40;;;12.10;99.90;;;;;;5028099;28;20060;-79
2022/05/29 10:59:52;;;;;;;0.30;0.30;;;12.20;99.90;;;;;;4957342;28;20508;-81
2022/05/29 11:05:38;;;;;;;0.40;0.40;;;12.20;99.90;;;;;;5030087;28;20037;-77
2022/05/29 11:08:30;;;;;;;0.55;0.55;;;12.30;99.90;;;;;;5024576;28;20045;-76
2022/05/29 11:11:17;;;;;;;0.40;0.40;;;12.40;99.90;;;;;;5025923;28;20038;-79
2022/05/29 11:13:48;;;;;;;0.32;0.32;;;12.50;99.90;;;;;;5012634;28;20125;-79
2022/05/29 11:16:37;;;;;;;0.40;0.40;;;12.60;99.90;;;;;;5024904;28;20387;-79
2022/05/29 11:19:31;;;;;;;0.20;0.20;;;12.70;99.90;;;;;;5007435;28;20045;-77
2022/05/29 11:22:18;;;;;;;0.30;0.30;;;12.70;99.90;;;;;;5018857;28;20049;-78
2022/05/29 11:25:06;;;;;;;0.40;0.40;;;12.80;99.90;;;;;;5019745;28;20041;-78
2022/05/29 11:28:05;;;;;;;0.38;0.38;;;12.90;99.90;;;;;;5006772;28;20046;-79
2022/05/29 11:31:03;;;;;;;0.20;0.20;;;13.10;99.90;;;;;;5015276;28;20044;-78
2022/05/29 11:33:50;;;;;;;3.15;1.02;;;13.30;99.90;;;;;;4968049;28;20057;-81
2022/05/29 11:36:54;;;;;;;1.02;1.02;;;13.50;99.90;;;;;;5013982;28;20052;-79
2022/05/29 11:39:27;;;;;;;0.52;0.52;;;13.50;99.90;;;;;;5002146;28;20103;-78
2022/05/29 11:42:02;;;;;;;0.50;0.50;;;13.40;99.90;;;;;;5015785;28;20499;-80
2022/05/29 11:44:39;;;;;;;0.55;0.35;;;13.20;99.90;;;;;;5013040;28;20042;-77
2022/05/29 11:53:23;;;;;;;0.75;0.70;;;12.60;99.90;;;;;;5025893;28;20049;-82
2022/05/29 11:55:50;;;;;;;0.30;0.30;;;12.50;99.90;;;;;;5028327;28;20053;-78
2022/05/29 11:58:27;;;;;;;5.07;2.28;;;12.30;99.90;;;;;;5015111;28;20049;-77
2022/05/29 12:00:57;;;;;;;0.40;0.40;;;12.10;99.90;;;;;;5019097;28;20045;-80
2022/05/29 12:03:37;;;;;;;0.40;0.40;;;11.90;99.90;;;;;;5015563;28;20049;-79
2022/05/29 12:06:09;;;;;;;0.65;0.65;;;11.70;99.90;;;;;;5012889;28;20042;-78
2022/05/29 12:09:04;;;;;;;0.40;0.40;;;12.20;99.90;;;;;;5025053;28;20128;-84
2022/05/29 12:11:53;;;;;;;0.50;0.50;;;11.70;99.90;;;;;;4994437;28;20046;-78
2022/05/29 12:14:37;;;;;;;0.82;0.82;;;11.80;99.90;;;;;;5011736;28;20046;-78
2022/05/29 12:17:21;;;;;;;0.35;0.35;;;11.80;99.90;;;;;;4996982;28;20081;-78
2022/05/29 12:20:19;;;;;;;0.43;0.43;;;11.90;99.90;;;;;;4997598;28;20093;-83
2022/05/29 12:23:01;;;;;;;0.30;0.30;;;12.00;99.90;;;;;;5029863;28;20048;-79
2022/05/29 12:25:54;;;;;;;0.75;0.38;;;11.90;99.90;;;;;;5004274;28;20076;-81
2022/05/29 12:28:50;;;;;;;0.40;0.40;;;11.90;99.90;;;;;;4993017;28;20061;-76
2022/05/29 12:31:43;;;;;;;0.35;0.35;;;12.10;99.90;;;;;;5026931;28;20134;-81
2022/05/29 12:34:21;;;;;;;0.30;0.30;;;12.20;99.90;;;;;;5017873;28;20495;-81
2022/05/29 12:37:34;;;;;;;0.50;0.50;;;12.30;99.90;;;;;;5008879;28;20042;-77
2022/05/29 12:40:21;;;;;;;0.28;0.28;;;12.50;99.90;;;;;;4999906;28;20092;-80
2022/05/29 12:42:56;;;;;;;1.20;0.47;;;12.70;99.90;;;;;;5012302;28;20057;-79
2022/05/29 12:45:25;;;;;;;0.55;0.55;;;13.00;99.90;;;;;;5002793;28;20046;-79
2022/05/29 12:48:09;;;;;;;0.30;0.30;;;13.20;99.90;;;;;;5030781;28;20364;-79
2022/05/29 12:50:47;;;;;;;0.40;0.40;;;13.30;99.90;;;;;;5018024;28;20503;-84
2022/05/29 12:53:24;;;;;;;0.40;0.40;;;13.20;99.90;;;;;;5008184;28;20380;-77
2022/05/29 12:56:14;;;;;;;0.45;0.45;;;13.00;99.90;;;;;;5031311;28;20118;-80
2022/05/29 12:58:42;;;;;;;0.40;0.40;;;13.00;99.90;;;;;;5018330;28;20446;-81
2022/05/29 13:01:14;;;;;;;0.40;0.40;;;13.10;99.90;;;;;;4994629;28;20087;-77
2022/05/29 13:04:14;;;;;;;0.30;0.30;;;13.10;99.90;;;;;;4995361;28;20038;-84
2022/05/29 13:07:17;;;;;;;0.82;0.82;;;13.20;99.90;;;;;;5014032;28;20087;-80
2022/05/29 13:09:58;;;;;;;0.30;0.30;;;13.30;99.90;;;;;;5003379;28;20364;-79
2022/05/29 13:12:35;;;;;;;0.30;0.30;;;13.40;99.90;;;;;;5007929;28;20503;-77
2022/05/29 13:15:08;;;;;;;0.30;0.30;;;13.40;99.90;;;;;;5025932;28;20045;-79
2022/05/29 13:17:35;;;;;;;0.30;0.30;;;13.50;99.90;;;;;;5021319;28;20054;-80
2022/05/29 13:20:06;;;;;;;0.30;0.30;;;13.70;99.90;;;;;;4978339;28;20050;-77
2022/05/29 13:22:46;;;;;;;0.73;0.73;;;13.70;99.90;;;;;;5004830;28;20041;-80
2022/05/29 13:25:12;;;;;;;0.30;0.30;;;13.60;99.90;;;;;;5002543;28;20092;-76
2022/05/29 13:27:44;;;;;;;0.40;0.40;;;13.60;99.90;;;;;;5018227;28;20049;-78
2022/05/29 13:31:05;;;;;;;0.63;0.63;;;13.50;99.90;;;;;;4999002;28;20119;-80
2022/05/29 13:33:31;;;;;;;0.30;0.30;;;13.50;99.90;;;;;;4947884;29;20131;-78
2022/05/29 13:35:58;;;;;;;0.30;0.30;;;13.50;99.90;;;;;;5019482;28;20121;-81
2022/05/29 13:38:46;;;;;;;0.30;0.30;;;13.70;99.90;;;;;;5023495;28;20116;-80
2022/05/29 13:41:29;;;;;;;0.30;0.30;;;13.90;99.90;;;;;;5029524;28;20503;-81
2022/05/29 13:43:57;;;;;;;0.30;0.30;;;13.80;99.90;;;;;;5018129;28;20041;-76
2022/05/29 13:46:27;;;;;;;0.30;0.30;;;13.60;99.90;;;;;;5026364;28;20052;-81
2022/05/29 13:49:20;;;;;;;0.73;0.73;;;13.70;99.90;;;;;;5046969;28;20410;-78
2022/05/29 13:51:47;;;;;;;0.40;0.40;;;13.80;99.90;;;;;;5013684;28;20045;-78
2022/05/29 13:54:30;;;;;;;1.20;1.10;;;13.80;99.90;;;;;;5051839;28;20501;-77
2022/05/29 13:57:08;;;;;;;0.40;0.40;;;13.80;99.90;;;;;;5017119;28;20049;-80
2022/05/29 14:05:34;;;;;;;0.30;0.30;;;14.00;99.90;;;;;;5034294;28;20402;-80
2022/05/29 14:08:19;;;;;;;0.40;0.40;;;13.80;99.90;;;;;;5027630;28;20196;-80
2022/05/29 14:11:06;;;;;;;0.40;0.40;;;13.50;99.90;;;;;;5067113;28;20429;-80
2022/05/29 14:13:45;;;;;;;1.17;0.73;;;13.30;99.90;;;;;;5014143;28;20115;-78
2022/05/29 14:16:28;;;;;;;0.75;0.75;;;13.10;99.90;;;;;;5001214;28;20038;-80